sensor_id;sensor_type;location;lat;lon;timestamp;noise_LAeq;noise_LA_min;noise_LA_max;noise_LA01;noise_LA95
85141;Laerm;75501;52.586;13.284;2024-01-30T00:01:09;55.23;53.61;70.52;;
85141;Laerm;75501;52.586;13.284;2024-01-30T00:03:37;54.93;53.60;61.23;;
85141;Laerm;75501;52.586;13.284;2024-01-30T00:06:07;54.99;53.47;61.89;;
85141;Laerm;75501;52.586;13.284;2024-01-30T00:08:35;54.99;53.63;70.89;;
85141;Laerm;75501;52.586;13.284;2024-01-30T00:11:03;54.88;53.53;61.56;;
85141;Laerm;75501;52.586;13.284;2024-01-30T00:13:32;54.92;53.64;70.36;;
85141;Laerm;75501;52.586;13.284;2024-01-30T00:16:00;54.93;53.69;61.86;;
85141;Laerm;75501;52.586;13.284;2024-01-30T00:18:30;55.03;53.72;63.64;;
85141;Laerm;75501;52.586;13.284;2024-01-30T00:20:58;55.04;53.82;63.79;;
85141;Laerm;75501;52.586;13.284;2024-01-30T00:23:26;54.98;53.74;63.47;;
85141;Laerm;75501;52.586;13.284;2024-01-30T00:25:54;54.95;53.50;61.99;;
85141;Laerm;75501;52.586;13.284;2024-01-30T00:28:22;54.95;53.50;61.41;;
85141;Laerm;75501;52.586;13.284;2024-01-30T00:30:50;55.03;53.65;60.82;;
85141;Laerm;75501;52.586;13.284;2024-01-30T00:33:18;54.87;53.54;59.87;;
85141;Laerm;75501;52.586;13.284;2024-01-30T00:35:48;54.86;53.42;61.99;;
85141;Laerm;75501;52.586;13.284;2024-01-30T00:38:16;55.28;54.01;59.60;;
85141;Laerm;75501;52.586;13.284;2024-01-30T00:40:44;55.20;53.83;63.05;;
85141;Laerm;75501;52.586;13.284;2024-01-30T00:43:12;55.06;53.92;64.84;;
85141;Laerm;75501;52.586;13.284;2024-01-30T00:45:40;55.19;53.72;64.60;;
85141;Laerm;75501;52.586;13.284;2024-01-30T00:48:08;55.10;53.95;62.63;;
85141;Laerm;75501;52.586;13.284;2024-01-30T00:50:37;54.95;53.60;62.02;;
85141;Laerm;75501;52.586;13.284;2024-01-30T00:53:06;55.03;53.76;64.03;;
85141;Laerm;75501;52.586;13.284;2024-01-30T00:55:34;54.99;53.46;71.29;;
85141;Laerm;75501;52.586;13.284;2024-01-30T00:58:03;54.95;53.63;68.45;;
85141;Laerm;75501;52.586;13.284;2024-01-30T01:00:32;54.89;53.61;69.63;;
85141;Laerm;75501;52.586;13.284;2024-01-30T01:03:01;54.95;53.60;69.90;;
85141;Laerm;75501;52.586;13.284;2024-01-30T01:05:29;54.99;53.66;60.21;;
85141;Laerm;75501;52.586;13.284;2024-01-30T01:07:57;55.00;53.64;62.73;;
85141;Laerm;75501;52.586;13.284;2024-01-30T01:10:27;55.16;53.77;65.10;;
85141;Laerm;75501;52.586;13.284;2024-01-30T01:12:55;55.15;53.86;64.69;;
85141;Laerm;75501;52.586;13.284;2024-01-30T01:15:24;55.07;53.83;70.39;;
85141;Laerm;75501;52.586;13.284;2024-01-30T01:17:56;54.99;53.72;62.07;;
85141;Laerm;75501;52.586;13.284;2024-01-30T01:20:24;54.87;53.73;60.94;;
85141;Laerm;75501;52.586;13.284;2024-01-30T01:22:52;54.85;53.60;61.71;;
85141;Laerm;75501;52.586;13.284;2024-01-30T01:25:21;55.04;53.46;70.94;;
85141;Laerm;75501;52.586;13.284;2024-01-30T01:27:50;54.85;53.42;65.33;;
85141;Laerm;75501;52.586;13.284;2024-01-30T01:30:19;54.97;53.59;60.28;;
85141;Laerm;75501;52.586;13.284;2024-01-30T01:32:49;54.86;53.44;56.89;;
85141;Laerm;75501;52.586;13.284;2024-01-30T01:35:22;54.81;53.57;60.54;;
85141;Laerm;75501;52.586;13.284;2024-01-30T01:37:51;54.94;53.66;70.48;;
85141;Laerm;75501;52.586;13.284;2024-01-30T01:40:23;54.84;53.54;59.98;;
85141;Laerm;75501;52.586;13.284;2024-01-30T01:42:55;54.86;53.54;70.44;;
85141;Laerm;75501;52.586;13.284;2024-01-30T01:45:23;54.89;53.67;61.79;;
85141;Laerm;75501;52.586;13.284;2024-01-30T01:47:51;54.89;53.69;61.42;;
85141;Laerm;75501;52.586;13.284;2024-01-30T01:50:21;54.93;53.66;70.00;;
85141;Laerm;75501;52.586;13.284;2024-01-30T01:52:51;54.97;53.68;67.03;;
85141;Laerm;75501;52.586;13.284;2024-01-30T01:55:21;55.02;53.69;71.05;;
85141;Laerm;75501;52.586;13.284;2024-01-30T01:57:53;55.10;53.96;65.74;;
85141;Laerm;75501;52.586;13.284;2024-01-30T02:00:23;55.07;53.94;63.06;;
85141;Laerm;75501;52.586;13.284;2024-01-30T02:02:52;54.94;53.58;71.32;;
85141;Laerm;75501;52.586;13.284;2024-01-30T02:05:22;55.24;53.39;65.72;;
85141;Laerm;75501;52.586;13.284;2024-01-30T02:07:52;54.84;53.62;62.21;;
85141;Laerm;75501;52.586;13.284;2024-01-30T02:10:20;55.06;53.56;69.87;;
85141;Laerm;75501;52.586;13.284;2024-01-30T02:12:49;54.96;53.59;71.22;;
85141;Laerm;75501;52.586;13.284;2024-01-30T02:15:19;54.86;53.50;61.73;;
85141;Laerm;75501;52.586;13.284;2024-01-30T02:17:47;54.96;53.55;61.59;;
85141;Laerm;75501;52.586;13.284;2024-01-30T02:20:15;54.95;53.57;61.37;;
85141;Laerm;75501;52.586;13.284;2024-01-30T02:22:45;54.95;53.37;61.80;;
85141;Laerm;75501;52.586;13.284;2024-01-30T02:25:14;54.96;53.66;63.36;;
85141;Laerm;75501;52.586;13.284;2024-01-30T02:27:42;54.94;53.77;61.57;;
85141;Laerm;75501;52.586;13.284;2024-01-30T02:30:12;54.95;53.60;63.35;;
85141;Laerm;75501;52.586;13.284;2024-01-30T02:32:40;54.84;53.54;56.35;;
85141;Laerm;75501;52.586;13.284;2024-01-30T02:35:08;54.82;53.48;60.78;;
85141;Laerm;75501;52.586;13.284;2024-01-30T02:37:36;54.83;53.67;62.12;;
85141;Laerm;75501;52.586;13.284;2024-01-30T02:40:07;54.94;53.62;61.61;;
85141;Laerm;75501;52.586;13.284;2024-01-30T02:42:35;54.86;53.52;61.99;;
85141;Laerm;75501;52.586;13.284;2024-01-30T02:45:03;54.90;53.47;62.29;;
85141;Laerm;75501;52.586;13.284;2024-01-30T02:47:31;54.89;53.26;71.05;;
85141;Laerm;75501;52.586;13.284;2024-01-30T02:49:59;54.86;53.31;64.88;;
85141;Laerm;75501;52.586;13.284;2024-01-30T02:52:27;54.85;53.68;60.97;;
85141;Laerm;75501;52.586;13.284;2024-01-30T02:54:55;54.86;53.67;61.21;;
85141;Laerm;75501;52.586;13.284;2024-01-30T02:57:25;55.00;53.60;61.06;;
85141;Laerm;75501;52.586;13.284;2024-01-30T02:59:53;54.92;53.71;56.85;;
85141;Laerm;75501;52.586;13.284;2024-01-30T03:02:21;54.84;53.65;60.59;;
85141;Laerm;75501;52.586;13.284;2024-01-30T03:04:49;54.85;53.34;62.89;;
85141;Laerm;75501;52.586;13.284;2024-01-30T03:07:17;55.06;53.47;62.70;;
85141;Laerm;75501;52.586;13.284;2024-01-30T03:09:46;54.84;53.48;62.80;;
85141;Laerm;75501;52.586;13.284;2024-01-30T03:12:15;54.88;53.58;71.60;;
85141;Laerm;75501;52.586;13.284;2024-01-30T03:14:44;54.93;53.61;62.77;;
85141;Laerm;75501;52.586;13.284;2024-01-30T03:17:12;55.17;53.73;71.11;;
85141;Laerm;75501;52.586;13.284;2024-01-30T03:19:40;54.91;53.61;62.64;;
85141;Laerm;75501;52.586;13.284;2024-01-30T03:22:08;54.95;53.60;62.46;;
85141;Laerm;75501;52.586;13.284;2024-01-30T03:24:37;54.88;53.57;61.66;;
85141;Laerm;75501;52.586;13.284;2024-01-30T03:27:05;54.75;53.33;62.68;;
85141;Laerm;75501;52.586;13.284;2024-01-30T03:29:33;54.84;53.34;63.63;;
85141;Laerm;75501;52.586;13.284;2024-01-30T03:32:03;54.77;53.35;65.27;;
85141;Laerm;75501;52.586;13.284;2024-01-30T03:34:31;54.84;53.57;62.94;;
85141;Laerm;75501;52.586;13.284;2024-01-30T03:37:00;54.84;53.59;62.64;;
85141;Laerm;75501;52.586;13.284;2024-01-30T03:39:28;54.77;53.35;62.28;;
85141;Laerm;75501;52.586;13.284;2024-01-30T03:41:56;54.77;53.36;62.08;;
85141;Laerm;75501;52.586;13.284;2024-01-30T03:44:24;54.94;53.49;62.01;;
85141;Laerm;75501;52.586;13.284;2024-01-30T03:46:52;54.89;53.45;61.45;;
85141;Laerm;75501;52.586;13.284;2024-01-30T03:49:21;54.85;53.05;61.82;;
85141;Laerm;75501;52.586;13.284;2024-01-30T03:51:49;54.69;53.39;56.50;;
85141;Laerm;75501;52.586;13.284;2024-01-30T03:54:17;54.99;53.40;61.50;;
85141;Laerm;75501;52.586;13.284;2024-01-30T03:56:45;54.80;53.33;60.52;;
85141;Laerm;75501;52.586;13.284;2024-01-30T03:59:13;54.57;53.28;62.04;;
85141;Laerm;75501;52.586;13.284;2024-01-30T04:01:41;54.68;53.13;62.65;;
85141;Laerm;75501;52.586;13.284;2024-01-30T04:04:10;54.89;53.20;71.45;;
85141;Laerm;75501;52.586;13.284;2024-01-30T04:06:40;55.09;53.47;68.04;;
85141;Laerm;75501;52.586;13.284;2024-01-30T04:09:07;54.92;53.33;58.43;;
85141;Laerm;75501;52.586;13.284;2024-01-30T04:11:35;54.60;53.22;61.89;;
85141;Laerm;75501;52.586;13.284;2024-01-30T04:14:04;54.89;53.03;65.10;;
85141;Laerm;75501;52.586;13.284;2024-01-30T04:16:32;54.68;52.91;63.03;;
85141;Laerm;75501;52.586;13.284;2024-01-30T04:19:00;54.65;53.14;62.21;;
85141;Laerm;75501;52.586;13.284;2024-01-30T04:21:28;54.67;53.24;62.15;;
85141;Laerm;75501;52.586;13.284;2024-01-30T04:23:58;54.91;53.29;61.44;;
85141;Laerm;75501;52.586;13.284;2024-01-30T04:26:26;54.53;53.24;63.22;;
85141;Laerm;75501;52.586;13.284;2024-01-30T04:28:54;54.89;53.37;61.71;;
85141;Laerm;75501;52.586;13.284;2024-01-30T04:31:22;55.06;53.33;63.12;;
85141;Laerm;75501;52.586;13.284;2024-01-30T04:33:51;55.25;53.37;63.99;;
85141;Laerm;75501;52.586;13.284;2024-01-30T04:36:19;54.76;53.35;59.41;;
85141;Laerm;75501;52.586;13.284;2024-01-30T04:38:47;54.63;53.34;62.57;;
85141;Laerm;75501;52.586;13.284;2024-01-30T04:41:17;55.06;53.31;64.02;;
85141;Laerm;75501;52.586;13.284;2024-01-30T04:43:45;55.11;53.37;71.50;;
85141;Laerm;75501;52.586;13.284;2024-01-30T04:46:13;54.88;53.16;64.80;;
85141;Laerm;75501;52.586;13.284;2024-01-30T04:48:41;54.85;53.17;63.01;;
85141;Laerm;75501;52.586;13.284;2024-01-30T04:51:09;54.90;53.24;59.79;;
85141;Laerm;75501;52.586;13.284;2024-01-30T04:53:37;55.09;53.11;66.12;;
85141;Laerm;75501;52.586;13.284;2024-01-30T04:56:08;54.90;53.14;63.36;;
85141;Laerm;75501;52.586;13.284;2024-01-30T04:58:37;54.53;53.16;64.21;;
85141;Laerm;75501;52.586;13.284;2024-01-30T05:01:05;54.63;53.01;58.17;;
85141;Laerm;75501;52.586;13.284;2024-01-30T05:03:34;54.70;53.01;63.37;;
85141;Laerm;75501;52.586;13.284;2024-01-30T05:06:02;55.12;53.06;71.27;;
85141;Laerm;75501;52.586;13.284;2024-01-30T05:08:30;54.80;53.24;62.14;;
85141;Laerm;75501;52.586;13.284;2024-01-30T05:11:00;54.68;53.09;62.64;;
85141;Laerm;75501;52.586;13.284;2024-01-30T05:13:30;54.54;53.05;63.69;;
85141;Laerm;75501;52.586;13.284;2024-01-30T05:16:02;55.21;53.27;64.33;;
85141;Laerm;75501;52.586;13.284;2024-01-30T05:18:31;55.45;53.28;63.79;;
85141;Laerm;75501;52.586;13.284;2024-01-30T05:21:00;54.69;52.93;62.02;;
85141;Laerm;75501;52.586;13.284;2024-01-30T05:23:28;66.71;53.25;93.03;;
85141;Laerm;75501;52.586;13.284;2024-01-30T05:25:56;56.32;53.27;70.00;;
85141;Laerm;75501;52.586;13.284;2024-01-30T05:28:26;54.71;52.73;62.58;;
85141;Laerm;75501;52.586;13.284;2024-01-30T05:30:54;54.97;53.18;63.72;;
85141;Laerm;75501;52.586;13.284;2024-01-30T05:33:25;54.95;53.16;63.26;;
85141;Laerm;75501;52.586;13.284;2024-01-30T05:35:53;55.15;53.13;64.82;;
85141;Laerm;75501;52.586;13.284;2024-01-30T05:38:22;55.68;53.58;71.50;;
85141;Laerm;75501;52.586;13.284;2024-01-30T05:40:50;55.63;53.35;65.28;;
85141;Laerm;75501;52.586;13.284;2024-01-30T05:43:18;54.86;53.12;63.60;;
85141;Laerm;75501;52.586;13.284;2024-01-30T05:45:46;54.82;52.94;64.23;;
85141;Laerm;75501;52.586;13.284;2024-01-30T05:48:15;55.16;53.03;64.86;;
85141;Laerm;75501;52.586;13.284;2024-01-30T05:50:44;54.93;53.09;65.36;;
85141;Laerm;75501;52.586;13.284;2024-01-30T05:53:13;54.97;53.18;64.96;;
85141;Laerm;75501;52.586;13.284;2024-01-30T05:55:41;55.17;53.22;63.24;;
85141;Laerm;75501;52.586;13.284;2024-01-30T05:58:09;54.92;53.12;62.41;;
85141;Laerm;75501;52.586;13.284;2024-01-30T06:00:38;55.02;53.13;71.36;;
85141;Laerm;75501;52.586;13.284;2024-01-30T06:03:07;54.77;52.92;62.60;;
85141;Laerm;75501;52.586;13.284;2024-01-30T06:05:35;55.03;53.08;71.70;;
85141;Laerm;75501;52.586;13.284;2024-01-30T06:08:06;55.57;53.02;65.41;;
85141;Laerm;75501;52.586;13.284;2024-01-30T06:10:34;56.33;53.37;71.60;;
85141;Laerm;75501;52.586;13.284;2024-01-30T06:13:03;55.05;53.04;62.51;;
85141;Laerm;75501;52.586;13.284;2024-01-30T06:15:33;55.02;53.14;65.53;;
85141;Laerm;75501;52.586;13.284;2024-01-30T06:18:01;54.90;52.89;63.28;;
85141;Laerm;75501;52.586;13.284;2024-01-30T06:20:29;55.13;52.79;62.41;;
85141;Laerm;75501;52.586;13.284;2024-01-30T06:22:58;55.40;53.04;67.32;;
85141;Laerm;75501;52.586;13.284;2024-01-30T06:25:27;55.79;53.38;63.88;;
85141;Laerm;75501;52.586;13.284;2024-01-30T06:27:55;55.29;53.39;63.51;;
85141;Laerm;75501;52.586;13.284;2024-01-30T06:30:23;55.17;53.11;63.08;;
85141;Laerm;75501;52.586;13.284;2024-01-30T06:32:52;55.12;53.35;63.25;;
85141;Laerm;75501;52.586;13.284;2024-01-30T06:35:20;55.83;53.13;64.08;;
85141;Laerm;75501;52.586;13.284;2024-01-30T06:37:48;55.28;53.31;62.74;;
85141;Laerm;75501;52.586;13.284;2024-01-30T06:40:19;55.44;53.46;62.26;;
85141;Laerm;75501;52.586;13.284;2024-01-30T06:42:49;54.92;53.20;65.75;;
85141;Laerm;75501;52.586;13.284;2024-01-30T06:45:17;55.32;53.13;65.83;;
85141;Laerm;75501;52.586;13.284;2024-01-30T06:47:45;55.69;53.67;63.45;;
85141;Laerm;75501;52.586;13.284;2024-01-30T06:50:13;55.27;53.58;64.30;;
85141;Laerm;75501;52.586;13.284;2024-01-30T06:52:42;55.65;53.49;70.23;;
85141;Laerm;75501;52.586;13.284;2024-01-30T06:55:10;55.10;53.48;62.22;;
85141;Laerm;75501;52.586;13.284;2024-01-30T06:57:39;55.57;53.21;61.88;;
85141;Laerm;75501;52.586;13.284;2024-01-30T07:00:09;55.05;53.15;61.05;;
85141;Laerm;75501;52.586;13.284;2024-01-30T07:02:38;55.00;53.30;61.83;;
85141;Laerm;75501;52.586;13.284;2024-01-30T07:05:06;55.46;53.36;61.77;;
85141;Laerm;75501;52.586;13.284;2024-01-30T07:07:35;55.23;53.22;69.75;;
85141;Laerm;75501;52.586;13.284;2024-01-30T07:10:04;55.18;53.12;62.15;;
85141;Laerm;75501;52.586;13.284;2024-01-30T07:12:33;55.26;53.17;61.68;;
85141;Laerm;75501;52.586;13.284;2024-01-30T07:15:01;55.34;52.97;60.50;;
85141;Laerm;75501;52.586;13.284;2024-01-30T07:17:31;55.02;53.22;70.33;;
85141;Laerm;75501;52.586;13.284;2024-01-30T07:19:59;55.73;53.17;62.41;;
85141;Laerm;75501;52.586;13.284;2024-01-30T07:22:28;55.98;53.53;70.01;;
85141;Laerm;75501;52.586;13.284;2024-01-30T07:24:56;55.33;53.59;62.41;;
85141;Laerm;75501;52.586;13.284;2024-01-30T07:27:24;55.39;53.52;61.51;;
85141;Laerm;75501;52.586;13.284;2024-01-30T07:29:52;55.87;53.77;62.35;;
85141;Laerm;75501;52.586;13.284;2024-01-30T07:32:20;55.27;53.56;61.08;;
85141;Laerm;75501;52.586;13.284;2024-01-30T07:34:50;55.36;53.46;62.05;;
85141;Laerm;75501;52.586;13.284;2024-01-30T07:37:33;55.38;53.55;60.54;;
85141;Laerm;75501;52.586;13.284;2024-01-30T07:40:02;55.80;53.77;70.05;;
85141;Laerm;75501;52.586;13.284;2024-01-30T07:42:31;55.55;53.76;70.24;;
85141;Laerm;75501;52.586;13.284;2024-01-30T07:45:00;55.41;53.67;60.94;;
85141;Laerm;75501;52.586;13.284;2024-01-30T07:47:28;55.59;53.69;70.71;;
85141;Laerm;75501;52.586;13.284;2024-01-30T07:49:57;55.44;53.86;64.01;;
85141;Laerm;75501;52.586;13.284;2024-01-30T07:52:26;55.58;53.78;59.81;;
85141;Laerm;75501;52.586;13.284;2024-01-30T07:54:54;55.32;53.72;59.56;;
85141;Laerm;75501;52.586;13.284;2024-01-30T07:57:23;55.47;53.62;70.54;;
85141;Laerm;75501;52.586;13.284;2024-01-30T07:59:51;55.16;53.64;60.76;;
85141;Laerm;75501;52.586;13.284;2024-01-30T08:02:19;55.60;53.56;59.61;;
85141;Laerm;75501;52.586;13.284;2024-01-30T08:04:47;55.61;53.64;59.80;;
85141;Laerm;75501;52.586;13.284;2024-01-30T08:07:17;55.51;53.66;70.44;;
85141;Laerm;75501;52.586;13.284;2024-01-30T08:09:46;55.60;53.82;59.11;;
85141;Laerm;75501;52.586;13.284;2024-01-30T08:12:14;55.46;53.83;59.70;;
85141;Laerm;75501;52.586;13.284;2024-01-30T08:14:42;55.50;53.71;58.83;;
85141;Laerm;75501;52.586;13.284;2024-01-30T08:17:10;55.33;53.62;59.96;;
85141;Laerm;75501;52.586;13.284;2024-01-30T08:19:38;55.76;53.48;58.99;;
85141;Laerm;75501;52.586;13.284;2024-01-30T08:22:06;54.97;53.46;58.91;;
85141;Laerm;75501;52.586;13.284;2024-01-30T08:24:36;55.37;53.46;58.98;;
85141;Laerm;75501;52.586;13.284;2024-01-30T08:27:04;55.44;53.51;68.66;;
85141;Laerm;75501;52.586;13.284;2024-01-30T08:29:33;55.26;53.52;69.66;;
85141;Laerm;75501;52.586;13.284;2024-01-30T08:32:01;55.24;53.41;60.61;;
85141;Laerm;75501;52.586;13.284;2024-01-30T08:34:29;55.09;53.55;61.15;;
85141;Laerm;75501;52.586;13.284;2024-01-30T08:36:58;55.30;53.52;58.34;;
85141;Laerm;75501;52.586;13.284;2024-01-30T08:39:26;55.26;53.23;58.90;;
85141;Laerm;75501;52.586;13.284;2024-01-30T08:41:55;55.22;53.37;58.18;;
85141;Laerm;75501;52.586;13.284;2024-01-30T08:44:24;55.00;53.28;59.49;;
85141;Laerm;75501;52.586;13.284;2024-01-30T08:46:54;55.26;53.46;59.50;;
85141;Laerm;75501;52.586;13.284;2024-01-30T08:49:23;55.23;53.28;69.78;;
85141;Laerm;75501;52.586;13.284;2024-01-30T08:51:51;54.76;53.24;58.13;;
85141;Laerm;75501;52.586;13.284;2024-01-30T08:54:19;54.93;53.11;61.73;;
85141;Laerm;75501;52.586;13.284;2024-01-30T08:56:48;55.06;53.33;58.90;;
85141;Laerm;75501;52.586;13.284;2024-01-30T08:59:17;55.30;52.75;61.36;;
85141;Laerm;75501;52.586;13.284;2024-01-30T09:01:46;54.73;53.00;68.93;;
85141;Laerm;75501;52.586;13.284;2024-01-30T09:04:29;54.69;52.73;58.48;;
85141;Laerm;75501;52.586;13.284;2024-01-30T09:06:57;54.62;52.66;60.21;;
85141;Laerm;75501;52.586;13.284;2024-01-30T09:09:26;54.46;52.67;57.67;;
85141;Laerm;75501;52.586;13.284;2024-01-30T09:11:54;54.07;52.65;56.74;;
85141;Laerm;75501;52.586;13.284;2024-01-30T09:14:23;54.41;52.47;58.86;;
85141;Laerm;75501;52.586;13.284;2024-01-30T09:16:51;54.47;52.30;69.87;;
85141;Laerm;75501;52.586;13.284;2024-01-30T09:19:19;54.27;52.43;57.96;;
85141;Laerm;75501;52.586;13.284;2024-01-30T09:21:48;54.76;52.38;60.41;;
85141;Laerm;75501;52.586;13.284;2024-01-30T09:24:16;54.46;51.95;58.84;;
85141;Laerm;75501;52.586;13.284;2024-01-30T09:26:44;54.36;51.93;61.06;;
85141;Laerm;75501;52.586;13.284;2024-01-30T09:29:12;53.90;51.82;57.16;;
85141;Laerm;75501;52.586;13.284;2024-01-30T09:31:43;54.39;52.06;59.04;;
85141;Laerm;75501;52.586;13.284;2024-01-30T09:34:11;53.49;51.94;58.01;;
85141;Laerm;75501;52.586;13.284;2024-01-30T09:36:40;54.10;52.05;70.11;;
85141;Laerm;75501;52.586;13.284;2024-01-30T09:39:08;53.81;51.62;60.11;;
85141;Laerm;75501;52.586;13.284;2024-01-30T09:41:46;54.24;51.82;61.73;;
85141;Laerm;75501;52.586;13.284;2024-01-30T09:44:16;53.59;51.46;57.25;;
85141;Laerm;75501;52.586;13.284;2024-01-30T09:46:50;53.36;51.42;58.84;;
85141;Laerm;75501;52.586;13.284;2024-01-30T09:49:20;53.66;51.40;56.96;;
85141;Laerm;75501;52.586;13.284;2024-01-30T09:51:52;53.70;51.46;59.99;;
85141;Laerm;75501;52.586;13.284;2024-01-30T09:54:21;53.28;51.09;57.45;;
85141;Laerm;75501;52.586;13.284;2024-01-30T09:56:49;53.17;50.91;58.11;;
85141;Laerm;75501;52.586;13.284;2024-01-30T09:59:17;53.13;51.19;57.61;;
85141;Laerm;75501;52.586;13.284;2024-01-30T10:01:46;53.17;51.28;56.70;;
85141;Laerm;75501;52.586;13.284;2024-01-30T10:04:15;53.08;51.16;56.10;;
85141;Laerm;75501;52.586;13.284;2024-01-30T10:06:43;53.50;51.16;56.24;;
85141;Laerm;75501;52.586;13.284;2024-01-30T10:09:12;53.16;51.20;57.85;;
85141;Laerm;75501;52.586;13.284;2024-01-30T10:11:40;57.92;52.68;71.97;;
85141;Laerm;75501;52.586;13.284;2024-01-30T10:14:08;54.62;51.30;62.67;;
85141;Laerm;75501;52.586;13.284;2024-01-30T10:16:36;56.46;51.15;64.40;;
85141;Laerm;75501;52.586;13.284;2024-01-30T10:19:04;54.32;50.85;59.64;;
85141;Laerm;75501;52.586;13.284;2024-01-30T10:21:35;52.98;50.68;57.54;;
85141;Laerm;75501;52.586;13.284;2024-01-30T10:24:04;52.65;50.96;55.88;;
85141;Laerm;75501;52.586;13.284;2024-01-30T10:26:32;52.83;50.91;67.34;;
85141;Laerm;75501;52.586;13.284;2024-01-30T10:29:01;52.41;50.62;66.94;;
85141;Laerm;75501;52.586;13.284;2024-01-30T10:31:29;53.30;50.62;60.74;;
85141;Laerm;75501;52.586;13.284;2024-01-30T10:33:57;52.77;50.70;57.28;;
85141;Laerm;75501;52.586;13.284;2024-01-30T10:36:50;52.53;50.63;55.59;;
85141;Laerm;75501;52.586;13.284;2024-01-30T10:39:19;52.62;50.53;56.63;;
85141;Laerm;75501;52.586;13.284;2024-01-30T10:41:52;53.19;50.99;57.98;;
85141;Laerm;75501;52.586;13.284;2024-01-30T10:44:22;53.10;50.71;57.97;;
85141;Laerm;75501;52.586;13.284;2024-01-30T10:47:00;53.45;50.60;67.25;;
85141;Laerm;75501;52.586;13.284;2024-01-30T10:49:31;52.73;50.76;56.08;;
85141;Laerm;75501;52.586;13.284;2024-01-30T10:52:03;53.76;50.90;68.48;;
85141;Laerm;75501;52.586;13.284;2024-01-30T10:54:35;53.10;50.72;62.46;;
85141;Laerm;75501;52.586;13.284;2024-01-30T10:57:05;53.00;50.80;58.23;;
85141;Laerm;75501;52.586;13.284;2024-01-30T10:59:34;53.16;50.63;69.04;;
85141;Laerm;75501;52.586;13.284;2024-01-30T11:02:03;52.82;50.63;57.24;;
85141;Laerm;75501;52.586;13.284;2024-01-30T11:04:37;52.36;50.58;66.81;;
85141;Laerm;75501;52.586;13.284;2024-01-30T11:07:16;52.60;50.64;57.21;;
85141;Laerm;75501;52.586;13.284;2024-01-30T11:09:50;52.96;50.85;65.59;;
85141;Laerm;75501;52.586;13.284;2024-01-30T11:12:22;52.53;50.57;56.88;;
85141;Laerm;75501;52.586;13.284;2024-01-30T11:15:03;52.72;50.22;57.26;;
85141;Laerm;75501;52.586;13.284;2024-01-30T11:17:50;52.86;50.53;59.57;;
85141;Laerm;75501;52.586;13.284;2024-01-30T11:20:21;52.65;50.42;56.66;;
85141;Laerm;75501;52.586;13.284;2024-01-30T11:22:55;52.68;50.59;57.17;;
85141;Laerm;75501;52.586;13.284;2024-01-30T11:25:25;53.15;50.67;58.76;;
85141;Laerm;75501;52.586;13.284;2024-01-30T11:27:55;53.34;50.78;58.11;;
85141;Laerm;75501;52.586;13.284;2024-01-30T11:30:25;53.19;50.74;65.48;;
85141;Laerm;75501;52.586;13.284;2024-01-30T11:33:06;52.77;50.69;56.56;;
85141;Laerm;75501;52.586;13.284;2024-01-30T11:35:37;52.79;50.68;57.28;;
85141;Laerm;75501;52.586;13.284;2024-01-30T11:38:11;53.72;50.65;62.48;;
85141;Laerm;75501;52.586;13.284;2024-01-30T11:40:39;52.71;50.73;55.89;;
85141;Laerm;75501;52.586;13.284;2024-01-30T11:43:09;52.67;50.73;65.49;;
85141;Laerm;75501;52.586;13.284;2024-01-30T11:45:37;53.38;50.67;65.96;;
85141;Laerm;75501;52.586;13.284;2024-01-30T11:48:07;52.95;50.38;65.40;;
85141;Laerm;75501;52.586;13.284;2024-01-30T11:50:39;52.98;50.69;57.59;;
85141;Laerm;75501;52.586;13.284;2024-01-30T11:53:09;53.31;50.64;59.77;;
85141;Laerm;75501;52.586;13.284;2024-01-30T11:55:40;53.54;50.83;62.14;;
85141;Laerm;75501;52.586;13.284;2024-01-30T11:58:10;53.52;50.67;59.72;;
85141;Laerm;75501;52.586;13.284;2024-01-30T12:00:38;54.06;50.96;67.06;;
85141;Laerm;75501;52.586;13.284;2024-01-30T12:03:06;53.26;50.75;57.10;;
85141;Laerm;75501;52.586;13.284;2024-01-30T12:05:34;54.02;50.97;60.55;;
85141;Laerm;75501;52.586;13.284;2024-01-30T12:08:04;53.10;50.53;58.22;;
85141;Laerm;75501;52.586;13.284;2024-01-30T12:10:37;53.79;50.81;65.22;;
85141;Laerm;75501;52.586;13.284;2024-01-30T12:13:06;53.11;50.61;57.16;;
85141;Laerm;75501;52.586;13.284;2024-01-30T12:15:34;53.24;50.82;57.04;;
85141;Laerm;75501;52.586;13.284;2024-01-30T12:18:06;52.46;50.66;56.56;;
85141;Laerm;75501;52.586;13.284;2024-01-30T12:20:35;53.07;50.70;56.29;;
85141;Laerm;75501;52.586;13.284;2024-01-30T12:23:04;53.65;50.67;59.66;;
85141;Laerm;75501;52.586;13.284;2024-01-30T12:25:33;53.50;50.81;57.25;;
85141;Laerm;75501;52.586;13.284;2024-01-30T12:28:02;53.64;50.84;57.76;;
85141;Laerm;75501;52.586;13.284;2024-01-30T12:30:31;53.34;50.89;62.42;;
85141;Laerm;75501;52.586;13.284;2024-01-30T12:33:00;53.10;50.66;57.61;;
85141;Laerm;75501;52.586;13.284;2024-01-30T12:35:28;53.40;50.88;65.53;;
85141;Laerm;75501;52.586;13.284;2024-01-30T12:38:00;53.36;50.62;58.56;;
85141;Laerm;75501;52.586;13.284;2024-01-30T12:40:28;52.89;50.67;57.25;;
85141;Laerm;75501;52.586;13.284;2024-01-30T12:42:58;52.95;50.43;63.79;;
85141;Laerm;75501;52.586;13.284;2024-01-30T12:45:26;52.77;50.70;68.44;;
85141;Laerm;75501;52.586;13.284;2024-01-30T12:47:54;52.54;50.43;56.06;;
85141;Laerm;75501;52.586;13.284;2024-01-30T12:50:22;52.77;50.80;57.17;;
85141;Laerm;75501;52.586;13.284;2024-01-30T12:52:51;52.92;50.64;57.28;;
85141;Laerm;75501;52.586;13.284;2024-01-30T12:55:19;53.44;50.62;60.52;;
85141;Laerm;75501;52.586;13.284;2024-01-30T12:57:47;52.95;50.89;56.82;;
85141;Laerm;75501;52.586;13.284;2024-01-30T13:00:17;52.44;50.59;56.99;;
85141;Laerm;75501;52.586;13.284;2024-01-30T13:02:45;54.04;50.87;64.93;;
85141;Laerm;75501;52.586;13.284;2024-01-30T13:05:13;52.66;50.43;56.35;;
85141;Laerm;75501;52.586;13.284;2024-01-30T13:07:42;52.71;50.58;67.60;;
85141;Laerm;75501;52.586;13.284;2024-01-30T13:10:10;52.80;50.64;56.32;;
85141;Laerm;75501;52.586;13.284;2024-01-30T13:12:38;53.20;50.60;63.96;;
85141;Laerm;75501;52.586;13.284;2024-01-30T13:15:07;53.01;50.72;58.62;;
85141;Laerm;75501;52.586;13.284;2024-01-30T13:17:37;53.41;50.74;68.20;;
85141;Laerm;75501;52.586;13.284;2024-01-30T13:20:06;52.87;50.77;56.92;;
85141;Laerm;75501;52.586;13.284;2024-01-30T13:22:38;53.61;50.56;61.59;;
85141;Laerm;75501;52.586;13.284;2024-01-30T13:25:07;52.67;50.51;67.83;;
85141;Laerm;75501;52.586;13.284;2024-01-30T13:27:36;52.40;50.47;67.37;;
85141;Laerm;75501;52.586;13.284;2024-01-30T13:30:07;53.08;50.57;67.02;;
85141;Laerm;75501;52.586;13.284;2024-01-30T13:32:38;52.97;50.49;58.72;;
85141;Laerm;75501;52.586;13.284;2024-01-30T13:35:08;53.09;50.53;58.61;;
85141;Laerm;75501;52.586;13.284;2024-01-30T13:37:36;52.72;50.55;67.74;;
85141;Laerm;75501;52.586;13.284;2024-01-30T13:40:07;53.10;50.71;60.15;;
85141;Laerm;75501;52.586;13.284;2024-01-30T13:42:40;53.47;50.73;60.11;;